Time;durP1;ratioP1;P1;durP2;ratioP2;P2;SDS_P1;SDS_P2;PMS_P1;PMS_P2;Temp;Humidity;BMP_temperature;BMP_pressure;BME280_temperature;BME280_humidity;BME280_pressure;Samples;Min_cycle;Max_cycle;Signal;HPM_P1;HPM_P2
2023/06/29 00:00:08;;;;;;;6.00;3.65;;;27.30;96.70;;;;;;4989067;28;20065;-69
2023/06/29 00:02:39;;;;;;;3.92;3.53;;;27.30;96.70;;;;;;4979742;28;20754;-69
2023/06/29 00:05:08;;;;;;;7.03;3.70;;;27.20;96.70;;;;;;4985451;28;20734;-69
2023/06/29 00:07:36;;;;;;;4.75;4.10;;;27.00;96.70;;;;;;4985671;28;20042;-69
2023/06/29 00:10:05;;;;;;;4.32;3.50;;;26.90;96.70;;;;;;4986215;28;20046;-69
2023/06/29 00:12:36;;;;;;;4.38;3.45;;;27.10;96.70;;;;;;4977780;28;20078;-69
2023/06/29 00:15:05;;;;;;;3.90;2.97;;;27.10;96.70;;;;;;4980064;28;20054;-69
2023/06/29 00:17:34;;;;;;;4.13;3.72;;;27.20;96.70;;;;;;4981874;28;20133;-69
2023/06/29 00:20:04;;;;;;;4.78;3.42;;;27.10;96.70;;;;;;4990486;28;20188;-69
2023/06/29 00:22:32;;;;;;;4.55;3.00;;;27.10;96.70;;;;;;4974329;28;20147;-69
2023/06/29 00:25:00;;;;;;;5.05;3.30;;;27.00;96.70;;;;;;4976815;28;20055;-69
2023/06/29 00:27:28;;;;;;;5.30;3.80;;;27.10;96.70;;;;;;4984134;28;20042;-69
2023/06/29 00:29:58;;;;;;;3.47;3.05;;;27.10;96.70;;;;;;4984739;28;20192;-69
2023/06/29 00:32:27;;;;;;;4.35;3.38;;;27.10;96.70;;;;;;4988117;28;20667;-69
2023/06/29 00:34:55;;;;;;;3.50;3.20;;;27.10;96.70;;;;;;4982499;28;20046;-69
2023/06/29 00:37:24;;;;;;;5.03;3.15;;;27.00;96.70;;;;;;4980313;28;20121;-68
2023/06/29 00:39:53;;;;;;;3.60;3.28;;;27.00;96.70;;;;;;4976182;28;20500;-69
2023/06/29 00:42:21;;;;;;;3.25;2.95;;;27.00;96.70;;;;;;4985579;28;20093;-69
2023/06/29 00:44:49;;;;;;;3.03;2.72;;;27.00;96.70;;;;;;4984147;28;20042;-69
2023/06/29 00:47:22;;;;;;;3.20;2.88;;;26.90;96.70;;;;;;4967713;28;20416;-69
2023/06/29 00:50:36;;;;;;;3.80;3.10;;;27.00;96.70;;;;;;4989566;28;20056;-69
2023/06/29 00:53:04;;;;;;;3.10;2.53;;;27.00;96.70;;;;;;4980047;28;20047;-69
2023/06/29 01:12:19;;;;;;;3.55;2.60;;;26.80;96.70;;;;;;4981918;28;20133;-69
2023/06/29 01:14:50;;;;;;;5.03;2.67;;;26.80;96.70;;;;;;4983196;28;20046;-69
2023/06/29 01:17:22;;;;;;;2.70;2.47;;;26.80;96.70;;;;;;4979691;28;20061;-69
2023/06/29 01:19:52;;;;;;;2.67;2.20;;;26.70;96.70;;;;;;4981914;28;20050;-69
2023/06/29 01:22:26;;;;;;;3.47;2.20;;;26.60;96.70;;;;;;4984210;28;20520;-69
2023/06/29 01:24:56;;;;;;;5.13;2.45;;;26.60;96.70;;;;;;4990850;28;20400;-69
2023/06/29 01:27:24;;;;;;;5.78;2.22;;;26.50;96.70;;;;;;4984385;28;20507;-69
2023/06/29 01:29:55;;;;;;;3.33;2.00;;;26.40;96.70;;;;;;4967338;28;20057;-69
2023/06/29 01:32:26;;;;;;;3.30;2.15;;;26.40;96.70;;;;;;4989841;28;20043;-69
2023/06/29 01:34:54;;;;;;;2.80;2.13;;;26.50;96.70;;;;;;4979918;28;20570;-69
2023/06/29 01:37:25;;;;;;;2.80;2.20;;;26.40;96.70;;;;;;4982030;28;20038;-69
2023/06/29 01:39:58;;;;;;;2.53;1.90;;;26.50;96.70;;;;;;4981912;28;20104;-70
2023/06/29 01:42:28;;;;;;;2.60;2.25;;;26.40;96.70;;;;;;4980836;28;20057;-70
2023/06/29 01:44:57;;;;;;;2.40;2.08;;;26.40;96.70;;;;;;4983975;28;20122;-70
2023/06/29 01:47:26;;;;;;;2.63;2.05;;;26.40;96.70;;;;;;4984513;28;20042;-70
2023/06/29 01:49:55;;;;;;;2.30;1.80;;;26.40;96.70;;;;;;4995756;28;20574;-70
2023/06/29 01:56:14;;;;;;;2.22;1.75;;;26.20;96.70;;;;;;4985356;28;20037;-70
2023/06/29 01:58:42;;;;;;;2.75;2.05;;;26.10;96.70;;;;;;4987917;28;20104;-71
2023/06/29 02:19:19;;;;;;;3.95;1.80;;;26.00;96.70;;;;;;4941164;28;20098;-70
2023/06/29 02:21:49;;;;;;;1.77;1.58;;;26.00;96.70;;;;;;4924388;29;20082;-69
2023/06/29 02:24:17;;;;;;;2.30;1.55;;;26.00;96.70;;;;;;4926813;29;20212;-69
2023/06/29 02:26:45;;;;;;;1.98;1.70;;;26.00;96.70;;;;;;4926238;29;20130;-69
2023/06/29 02:29:13;;;;;;;3.35;1.60;;;26.00;96.70;;;;;;4923869;28;20516;-69
2023/06/29 02:31:41;;;;;;;2.67;1.73;;;26.00;96.70;;;;;;4923373;28;20050;-69
2023/06/29 02:34:09;;;;;;;2.55;1.80;;;26.10;96.70;;;;;;4981442;28;20116;-69
2023/06/29 02:36:37;;;;;;;1.48;1.38;;;26.00;96.70;;;;;;4981418;28;20038;-69
2023/06/29 02:59:49;;;;;;;2.33;1.15;;;25.70;96.70;;;;;;4994558;28;20129;-69
2023/06/29 03:02:18;;;;;;;3.33;1.95;;;25.70;96.70;;;;;;4983100;28;20046;-69
2023/06/29 03:04:45;;;;;;;1.98;1.60;;;25.70;96.70;;;;;;4980424;28;20049;-69
2023/06/29 03:28:20;;;;;;;2.28;1.50;;;25.70;96.70;;;;;;5000226;28;20130;-69
2023/06/29 03:30:49;;;;;;;2.05;1.52;;;25.60;96.70;;;;;;5001616;28;20053;-70
2023/06/29 03:33:17;;;;;;;1.63;1.23;;;25.60;96.70;;;;;;5007600;28;20583;-69
2023/06/29 03:35:46;;;;;;;2.13;1.42;;;25.50;96.70;;;;;;4986408;28;20045;-69
2023/06/29 04:03:35;;;;;;;2.30;1.58;;;25.50;96.70;;;;;;4980840;28;20132;-68
2023/06/29 04:06:04;;;;;;;2.85;1.45;;;25.60;96.70;;;;;;5000061;28;20055;-69
2023/06/29 04:08:32;;;;;;;2.88;1.33;;;25.60;96.70;;;;;;4984443;28;20057;-69
2023/06/29 04:11:00;;;;;;;2.38;1.30;;;25.60;96.70;;;;;;4993358;28;20076;-69
2023/06/29 04:13:28;;;;;;;3.38;1.55;;;25.60;96.70;;;;;;5003979;28;20065;-69
2023/06/29 04:16:45;;;;;;;2.00;1.20;;;25.60;96.70;;;;;;4983670;28;20104;-69
2023/06/29 04:19:19;;;;;;;3.05;1.20;;;25.60;96.70;;;;;;4924103;28;20506;-69
2023/06/29 04:21:47;;;;;;;3.80;1.10;;;25.60;96.70;;;;;;4938768;28;20059;-69
2023/06/29 04:24:15;;;;;;;4.07;1.50;;;25.60;96.70;;;;;;4920515;29;20748;-69
2023/06/29 04:26:43;;;;;;;2.38;1.10;;;25.50;96.70;;;;;;4919718;29;20060;-68
2023/06/29 04:29:11;;;;;;;2.47;1.38;;;25.50;96.70;;;;;;4923746;29;20259;-68
2023/06/29 04:31:39;;;;;;;1.30;1.08;;;25.60;96.70;;;;;;4937919;28;20052;-68
2023/06/29 04:38:14;;;;;;;1.10;0.90;;;25.60;96.70;;;;;;4941337;28;20175;-68
2023/06/29 04:40:42;;;;;;;2.10;1.30;;;25.60;96.70;;;;;;4935944;28;20050;-68
2023/06/29 04:43:10;;;;;;;2.60;1.25;;;25.60;96.70;;;;;;4925053;28;20054;-69
2023/06/29 04:45:40;;;;;;;4.38;1.65;;;25.60;96.70;;;;;;4935125;28;20137;-69
2023/06/29 04:48:37;;;;;;;1.85;1.25;;;25.60;96.70;;;;;;4925700;28;20592;-69
2023/06/29 04:51:06;;;;;;;1.63;1.40;;;25.60;96.70;;;;;;5007782;28;20472;-69
2023/06/29 04:53:36;;;;;;;4.00;1.38;;;25.60;96.70;;;;;;5002857;28;20129;-68
2023/06/29 04:56:05;;;;;;;3.53;1.65;;;25.60;96.70;;;;;;4996593;28;20119;-68
2023/06/29 04:58:33;;;;;;;2.67;1.50;;;25.60;96.70;;;;;;5007131;28;20081;-68
2023/06/29 05:01:01;;;;;;;3.38;1.65;;;25.60;96.70;;;;;;4987927;28;20144;-68
2023/06/29 05:03:29;;;;;;;2.72;1.40;;;25.70;96.70;;;;;;5003846;28;20041;-69
2023/06/29 05:05:58;;;;;;;5.78;1.80;;;25.70;96.70;;;;;;5001150;28;20056;-68
2023/06/29 05:08:26;;;;;;;3.22;1.90;;;25.60;96.70;;;;;;5006147;28;20103;-68
2023/06/29 05:10:55;;;;;;;5.00;2.13;;;25.60;96.70;;;;;;5000060;28;20535;-68
2023/06/29 05:13:24;;;;;;;3.08;1.83;;;25.70;96.70;;;;;;5003284;28;20045;-69
2023/06/29 05:15:52;;;;;;;6.47;1.90;;;25.70;96.70;;;;;;5008221;28;20057;-70
2023/06/29 05:18:20;;;;;;;2.63;1.65;;;25.80;96.70;;;;;;5003657;28;20042;-69
2023/06/29 05:20:48;;;;;;;5.43;2.22;;;25.70;96.70;;;;;;4999378;28;20043;-69
2023/06/29 05:23:16;;;;;;;5.05;2.17;;;25.70;96.70;;;;;;4985773;28;20053;-68
2023/06/29 05:26:05;;;;;;;8.23;3.00;;;25.70;96.70;;;;;;5010854;28;20136;-68
2023/06/29 05:28:33;;;;;;;6.30;2.42;;;25.80;96.70;;;;;;5020067;28;20107;-68
2023/06/29 05:31:01;;;;;;;5.55;2.00;;;25.90;96.70;;;;;;4973186;28;20153;-69
2023/06/29 05:33:29;;;;;;;3.78;2.00;;;26.00;96.70;;;;;;5017843;28;20682;-69
2023/06/29 05:35:57;;;;;;;3.70;2.10;;;25.90;96.70;;;;;;5023823;28;20120;-69
2023/06/29 05:38:29;;;;;;;6.65;2.30;;;26.00;96.70;;;;;;5018573;28;20042;-69
2023/06/29 05:40:57;;;;;;;3.65;1.77;;;26.00;96.70;;;;;;5007019;28;20052;-69
2023/06/29 05:43:30;;;;;;;3.50;1.77;;;26.00;96.70;;;;;;5000661;28;20581;-68
2023/06/29 05:45:59;;;;;;;3.38;1.65;;;25.90;96.70;;;;;;5017000;28;20415;-68
2023/06/29 05:48:27;;;;;;;2.00;1.52;;;25.90;96.70;;;;;;4985005;28;20057;-69
2023/06/29 05:50:55;;;;;;;4.07;1.50;;;26.00;96.70;;;;;;5020296;28;20912;-70
2023/06/29 06:01:49;;;;;;;5.00;1.70;;;26.10;96.70;;;;;;5009388;28;20822;-69
2023/06/29 06:04:18;;;;;;;2.47;1.40;;;26.20;96.70;;;;;;5005572;28;20053;-69
2023/06/29 06:06:46;;;;;;;4.03;1.48;;;26.30;96.70;;;;;;5022935;28;20041;-69
2023/06/29 06:09:14;;;;;;;3.42;1.40;;;26.40;96.70;;;;;;4997843;28;20142;-70
2023/06/29 06:11:42;;;;;;;3.65;1.50;;;26.50;96.70;;;;;;5008362;28;20099;-69
2023/06/29 06:14:19;;;;;;;3.47;1.25;;;26.50;96.70;;;;;;5000142;28;20049;-69
2023/06/29 06:16:49;;;;;;;2.30;1.42;;;26.60;96.70;;;;;;5011826;28;20099;-69
2023/06/29 06:19:16;;;;;;;2.53;1.15;;;26.60;96.70;;;;;;5009575;28;20073;-69
2023/06/29 06:21:44;;;;;;;2.65;1.35;;;26.60;96.70;;;;;;5003283;28;20128;-69
2023/06/29 06:24:12;;;;;;;3.40;1.33;;;26.60;96.70;;;;;;5010954;28;20729;-69
2023/06/29 06:26:41;;;;;;;3.40;1.38;;;26.70;96.70;;;;;;4990960;28;20405;-69
2023/06/29 06:29:09;;;;;;;3.33;1.20;;;26.70;96.70;;;;;;5015772;28;20077;-68
2023/06/29 06:31:39;;;;;;;3.47;1.50;;;26.70;96.70;;;;;;5012128;28;20530;-69
2023/06/29 06:34:09;;;;;;;7.15;1.15;;;26.70;96.70;;;;;;5003454;28;20053;-69
2023/06/29 06:36:38;;;;;;;2.97;1.23;;;26.70;96.70;;;;;;5020696;28;20120;-69
2023/06/29 06:39:06;;;;;;;3.80;1.30;;;26.80;96.70;;;;;;5022199;28;20525;-69
2023/06/29 06:41:34;;;;;;;2.42;1.40;;;26.70;96.70;;;;;;5022972;28;20520;-69
2023/06/29 06:44:03;;;;;;;2.47;1.50;;;26.80;96.70;;;;;;5021306;28;20391;-69
2023/06/29 06:46:32;;;;;;;2.70;1.90;;;26.80;96.70;;;;;;5004998;28;20068;-69
2023/06/29 06:49:35;;;;;;;2.22;1.60;;;26.80;96.70;;;;;;5014182;28;20438;-69
2023/06/29 06:52:03;;;;;;;5.78;1.80;;;26.90;96.70;;;;;;5014523;28;20139;-69
2023/06/29 06:54:31;;;;;;;3.67;1.90;;;26.90;96.70;;;;;;5021975;28;20096;-69
2023/06/29 06:57:00;;;;;;;4.05;1.70;;;26.90;96.70;;;;;;5003323;28;20176;-69
2023/06/29 06:59:28;;;;;;;3.63;1.67;;;27.00;96.70;;;;;;5013179;28;20099;-69
2023/06/29 07:01:56;;;;;;;5.22;1.73;;;27.10;96.70;;;;;;5022284;28;20045;-69
2023/06/29 07:04:24;;;;;;;2.83;1.70;;;27.10;96.70;;;;;;5021779;28;20080;-69
2023/06/29 07:06:54;;;;;;;3.42;1.77;;;27.10;96.70;;;;;;5001186;28;20083;-69
2023/06/29 07:09:22;;;;;;;2.17;1.42;;;27.10;96.70;;;;;;5003933;28;20053;-69
2023/06/29 07:11:50;;;;;;;3.53;1.13;;;27.20;96.70;;;;;;5018318;28;20049;-70
2023/06/29 07:14:21;;;;;;;3.38;1.20;;;27.20;96.70;;;;;;5004440;28;20064;-72
2023/06/29 07:16:49;;;;;;;1.85;0.90;;;27.30;96.70;;;;;;4988238;28;20132;-71
2023/06/29 07:19:17;;;;;;;2.55;0.90;;;27.30;96.70;;;;;;5001279;28;20049;-72
2023/06/29 07:21:48;;;;;;;4.40;0.80;;;27.50;96.70;;;;;;5021865;28;20096;-71
2023/06/29 07:24:21;;;;;;;1.52;1.10;;;27.50;96.70;;;;;;5016370;28;20057;-72
2023/06/29 07:26:50;;;;;;;4.35;1.23;;;27.60;96.70;;;;;;5018701;28;20457;-69
2023/06/29 07:29:18;;;;;;;5.35;1.52;;;27.60;96.70;;;;;;5004311;28;20227;-69
2023/06/29 07:31:46;;;;;;;7.88;2.10;;;27.60;96.70;;;;;;5016317;28;20498;-69
2023/06/29 07:34:14;;;;;;;2.22;0.98;;;27.70;96.70;;;;;;5004436;28;20391;-69
2023/06/29 07:36:43;;;;;;;1.67;1.13;;;27.70;96.70;;;;;;5020197;28;20050;-69
2023/06/29 07:39:11;;;;;;;2.22;0.90;;;27.80;96.70;;;;;;5012708;28;21825;-69
2023/06/29 07:41:41;;;;;;;6.63;1.27;;;27.90;96.70;;;;;;4982320;28;20057;-69
2023/06/29 07:44:10;;;;;;;2.95;1.00;;;28.00;96.70;;;;;;5000609;28;20345;-69
2023/06/29 07:46:38;;;;;;;2.75;1.05;;;28.00;96.70;;;;;;5019871;28;20041;-69
2023/06/29 07:49:06;;;;;;;3.25;1.40;;;28.00;96.70;;;;;;4984052;28;20467;-69
2023/06/29 07:51:35;;;;;;;22.02;3.47;;;28.00;96.70;;;;;;5012547;28;20108;-69
2023/06/29 07:54:08;;;;;;;3.80;1.50;;;28.00;96.70;;;;;;4986621;28;20145;-69
2023/06/29 07:56:37;;;;;;;16.33;3.13;;;28.00;96.70;;;;;;5022185;28;20049;-69
2023/06/29 07:59:09;;;;;;;2.17;1.60;;;28.10;96.70;;;;;;5022471;28;20049;-69
2023/06/29 08:01:37;;;;;;;3.65;1.40;;;28.10;96.70;;;;;;5021559;28;20046;-70
2023/06/29 08:04:07;;;;;;;2.33;1.00;;;28.10;96.70;;;;;;5012072;28;20136;-69
2023/06/29 08:06:41;;;;;;;2.33;1.00;;;28.10;96.70;;;;;;5005963;28;20049;-70
2023/06/29 08:09:19;;;;;;;2.45;0.90;;;28.20;96.70;;;;;;5018626;28;20092;-69
2023/06/29 08:11:47;;;;;;;3.47;0.90;;;28.20;96.70;;;;;;5024877;28;20156;-69
2023/06/29 08:14:17;;;;;;;8.48;1.40;;;28.20;96.70;;;;;;5026009;28;20048;-69
2023/06/29 08:16:45;;;;;;;1.60;1.00;;;28.20;96.70;;;;;;5025360;28;20048;-69
2023/06/29 08:19:15;;;;;;;1.88;0.80;;;28.20;96.70;;;;;;5003993;28;20045;-69
2023/06/29 08:21:43;;;;;;;2.75;1.08;;;28.30;96.70;;;;;;5019966;28;20124;-69
2023/06/29 08:24:11;;;;;;;3.08;1.02;;;28.40;96.70;;;;;;5011481;28;20065;-70
2023/06/29 08:26:41;;;;;;;2.92;1.15;;;28.50;96.70;;;;;;5025688;28;20100;-69
2023/06/29 08:29:09;;;;;;;2.63;1.05;;;28.60;96.70;;;;;;5007435;28;20576;-70
2023/06/29 08:31:39;;;;;;;3.15;1.40;;;28.60;96.70;;;;;;5000951;28;20053;-71
2023/06/29 08:34:07;;;;;;;2.80;1.30;;;28.70;96.70;;;;;;5023360;28;20049;-71
2023/06/29 08:36:36;;;;;;;2.13;1.10;;;28.70;96.70;;;;;;5024018;28;20045;-70
2023/06/29 08:39:04;;;;;;;5.28;1.70;;;28.70;96.70;;;;;;5024215;28;20045;-70
2023/06/29 08:41:32;;;;;;;1.58;1.10;;;28.80;96.70;;;;;;5007288;28;21969;-70
2023/06/29 08:44:04;;;;;;;1.88;0.90;;;28.80;96.70;;;;;;5007237;28;20572;-70
2023/06/29 08:46:33;;;;;;;2.17;1.23;;;28.80;96.70;;;;;;5024818;28;20052;-70
2023/06/29 08:49:06;;;;;;;6.57;1.08;;;28.90;96.70;;;;;;5017002;28;20097;-70
2023/06/29 08:51:36;;;;;;;1.48;1.00;;;28.90;96.70;;;;;;5001645;28;20135;-69
2023/06/29 08:54:05;;;;;;;1.63;1.15;;;29.00;96.70;;;;;;5006717;28;20067;-70
2023/06/29 08:56:34;;;;;;;2.63;1.35;;;29.10;96.70;;;;;;5024724;28;20077;-70
2023/06/29 08:59:02;;;;;;;2.45;1.35;;;29.10;96.70;;;;;;5023605;28;20038;-70
2023/06/29 09:01:31;;;;;;;2.50;1.13;;;29.20;96.70;;;;;;4990699;28;20553;-70
2023/06/29 09:04:00;;;;;;;3.25;1.42;;;29.20;96.70;;;;;;5022198;28;20562;-70
2023/06/29 09:06:32;;;;;;;2.08;1.05;;;29.20;96.70;;;;;;5024446;28;20140;-70
2023/06/29 09:09:01;;;;;;;2.40;1.20;;;29.30;96.70;;;;;;5024370;28;20045;-70
2023/06/29 09:11:33;;;;;;;1.45;1.17;;;29.40;96.70;;;;;;5024262;28;20048;-70
2023/06/29 09:14:07;;;;;;;1.65;1.48;;;29.40;96.70;;;;;;5024815;28;20049;-70
2023/06/29 09:16:35;;;;;;;2.08;1.17;;;29.50;96.70;;;;;;5006718;28;20152;-70
2023/06/29 09:19:05;;;;;;;3.05;1.20;;;29.60;96.70;;;;;;5014940;28;20120;-70
2023/06/29 09:21:35;;;;;;;1.80;1.30;;;29.60;96.70;;;;;;5006719;28;20064;-70
2023/06/29 09:24:04;;;;;;;1.60;1.30;;;29.70;96.70;;;;;;5019542;28;20045;-70
2023/06/29 09:26:33;;;;;;;3.28;1.10;;;29.70;96.70;;;;;;5022746;28;20049;-70
2023/06/29 09:29:03;;;;;;;2.22;1.20;;;29.80;96.70;;;;;;5024169;28;20565;-70
2023/06/29 09:31:35;;;;;;;1.90;1.45;;;29.70;96.70;;;;;;5016971;28;20054;-70
2023/06/29 09:34:19;;;;;;;3.10;1.50;;;29.70;96.70;;;;;;5021205;28;20029;-69
2023/06/29 09:36:49;;;;;;;2.65;1.17;;;29.70;96.70;;;;;;5004022;28;20586;-69
2023/06/29 09:39:18;;;;;;;1.75;1.40;;;29.80;96.70;;;;;;5008021;28;20053;-70
2023/06/29 09:41:47;;;;;;;1.60;1.10;;;29.90;96.70;;;;;;5013373;28;20132;-69
2023/06/29 09:44:19;;;;;;;3.47;1.48;;;29.80;96.70;;;;;;5024145;28;20045;-70
2023/06/29 09:46:47;;;;;;;2.15;1.63;;;29.80;96.70;;;;;;4999427;28;20088;-70
2023/06/29 09:49:19;;;;;;;1.70;1.33;;;29.90;96.70;;;;;;4996155;28;20069;-69
2023/06/29 09:52:01;;;;;;;2.45;1.20;;;30.00;96.70;;;;;;4989951;28;20041;-70
2023/06/29 09:54:34;;;;;;;3.25;1.13;;;30.10;96.70;;;;;;5004465;28;20076;-70
2023/06/29 09:57:03;;;;;;;3.40;1.55;;;30.10;96.70;;;;;;5021137;28;20547;-71
2023/06/29 09:59:31;;;;;;;2.65;1.40;;;30.10;96.70;;;;;;5022739;28;20051;-71
2023/06/29 10:02:09;;;;;;;3.05;1.48;;;30.20;96.70;;;;;;4997653;28;20589;-71
2023/06/29 10:04:42;;;;;;;1.83;1.60;;;30.20;96.70;;;;;;5022815;28;20049;-69
2023/06/29 10:07:14;;;;;;;1.58;1.15;;;30.20;96.70;;;;;;5005485;28;20127;-70
2023/06/29 10:09:47;;;;;;;2.33;1.17;;;30.40;96.70;;;;;;5004865;28;20045;-70
2023/06/29 10:12:17;;;;;;;4.43;1.42;;;30.30;96.70;;;;;;5007127;28;20628;-69
2023/06/29 10:14:46;;;;;;;3.33;1.55;;;30.30;96.70;;;;;;5018181;28;20086;-69
2023/06/29 10:17:25;;;;;;;1.70;1.40;;;30.40;96.70;;;;;;5023225;28;20049;-69
2023/06/29 10:19:57;;;;;;;2.42;1.27;;;30.40;96.70;;;;;;5017398;28;20053;-70
2023/06/29 10:22:28;;;;;;;1.52;1.30;;;30.30;96.70;;;;;;5023037;28;20047;-69
2023/06/29 10:25:03;;;;;;;1.73;1.50;;;30.30;96.70;;;;;;5016033;28;20450;-69
2023/06/29 10:27:34;;;;;;;1.80;1.50;;;30.30;96.70;;;;;;5021516;28;20037;-69
2023/06/29 10:30:04;;;;;;;2.83;1.63;;;30.30;96.70;;;;;;5013744;28;20041;-70
2023/06/29 10:32:34;;;;;;;1.95;1.58;;;30.50;96.70;;;;;;5012481;28;20079;-71
2023/06/29 10:35:08;;;;;;;2.63;1.40;;;30.70;96.70;;;;;;5022816;28;20041;-71
2023/06/29 10:37:38;;;;;;;1.58;1.33;;;30.60;96.70;;;;;;5021090;28;20483;-70
2023/06/29 10:40:14;;;;;;;1.83;1.40;;;30.60;96.70;;;;;;5022802;28;20048;-71
2023/06/29 10:42:55;;;;;;;3.95;1.70;;;30.60;96.70;;;;;;5001922;28;20038;-69
2023/06/29 10:45:33;;;;;;;1.42;1.30;;;30.60;96.70;;;;;;5022657;28;20045;-69
2023/06/29 10:48:04;;;;;;;1.90;1.67;;;30.70;96.70;;;;;;5016400;28;20549;-70
2023/06/29 10:50:37;;;;;;;2.08;1.50;;;31.10;96.70;;;;;;5007129;28;20050;-70
2023/06/29 10:53:09;;;;;;;2.20;1.50;;;31.30;96.10;;;;;;4985729;28;20033;-69
2023/06/29 10:55:42;;;;;;;1.70;1.60;;;31.40;96.30;;;;;;5005683;28;20045;-70
2023/06/29 10:58:35;;;;;;;2.40;1.60;;;31.50;96.60;;;;;;5014670;28;20052;-71
2023/06/29 11:01:03;;;;;;;2.17;1.40;;;31.60;96.70;;;;;;4987104;28;20063;-73
2023/06/29 11:03:32;;;;;;;3.13;1.98;;;31.80;96.70;;;;;;5004483;28;20084;-72
2023/06/29 11:06:01;;;;;;;2.75;1.70;;;31.80;96.10;;;;;;5022293;28;20049;-72
2023/06/29 11:08:32;;;;;;;2.38;1.80;;;31.80;96.70;;;;;;5004519;28;20041;-71
2023/06/29 11:11:15;;;;;;;3.45;1.80;;;31.90;95.50;;;;;;4993411;28;20066;-71
2023/06/29 11:13:45;;;;;;;1.77;1.38;;;31.60;94.30;;;;;;5014337;28;20050;-69
2023/06/29 11:16:14;;;;;;;3.15;1.52;;;31.40;95.00;;;;;;4974425;28;20108;-71
2023/06/29 11:18:48;;;;;;;9.30;2.40;;;31.40;95.70;;;;;;4994109;28;20524;-70
2023/06/29 11:21:19;;;;;;;1.75;1.52;;;31.70;96.20;;;;;;4995617;28;20054;-71
2023/06/29 11:23:53;;;;;;;3.30;1.67;;;31.80;95.90;;;;;;4995031;28;20113;-71
2023/06/29 11:26:22;;;;;;;3.38;1.90;;;31.90;94.90;;;;;;4994518;28;20463;-71
2023/06/29 11:28:50;;;;;;;2.75;2.03;;;32.10;96.20;;;;;;5013691;28;20081;-71
2023/06/29 11:31:20;;;;;;;2.17;1.98;;;32.30;96.40;;;;;;5005910;28;20136;-71
2023/06/29 11:33:49;;;;;;;3.55;1.83;;;32.50;95.50;;;;;;5007973;28;20044;-70
2023/06/29 11:36:28;;;;;;;2.00;1.88;;;32.60;94.20;;;;;;5016630;28;20120;-70
2023/06/29 11:39:08;;;;;;;2.60;1.67;;;32.70;95.00;;;;;;5006645;28;20112;-71
2023/06/29 11:41:37;;;;;;;4.80;1.65;;;32.80;94.20;;;;;;4999050;28;20058;-70
2023/06/29 11:44:06;;;;;;;3.40;1.95;;;32.80;94.20;;;;;;5002862;28;20624;-70
2023/06/29 11:46:38;;;;;;;4.75;1.80;;;32.80;95.70;;;;;;4997629;28;20458;-70
2023/06/29 11:49:07;;;;;;;2.13;1.60;;;33.10;95.70;;;;;;5004832;28;20073;-70
2023/06/29 11:51:38;;;;;;;2.63;1.98;;;33.20;94.30;;;;;;5025012;28;20514;-70
2023/06/29 11:54:09;;;;;;;3.03;1.90;;;33.10;93.60;;;;;;5022617;28;20037;-69
2023/06/29 11:56:40;;;;;;;1.83;1.70;;;33.00;93.60;;;;;;5008754;28;20568;-69
2023/06/29 11:59:12;;;;;;;2.70;1.67;;;33.00;93.10;;;;;;5019811;28;20075;-69
2023/06/29 12:01:41;;;;;;;2.33;2.00;;;33.10;94.90;;;;;;4996612;28;20045;-68
2023/06/29 12:04:09;;;;;;;2.33;1.88;;;33.10;95.00;;;;;;5004506;28;20073;-70
2023/06/29 12:06:50;;;;;;;3.20;2.10;;;33.40;95.20;;;;;;5001386;28;20494;-69
2023/06/29 12:09:27;;;;;;;2.55;2.30;;;33.30;94.00;;;;;;5011304;28;20503;-70
2023/06/29 12:11:56;;;;;;;2.60;2.22;;;33.30;94.50;;;;;;5015128;28;20042;-70
2023/06/29 12:14:27;;;;;;;2.78;2.10;;;33.30;94.70;;;;;;4997297;28;20459;-70
2023/06/29 12:16:57;;;;;;;3.05;1.98;;;33.40;94.70;;;;;;4990426;28;20049;-70
2023/06/29 12:19:33;;;;;;;3.42;2.20;;;33.30;94.30;;;;;;4991527;28;20045;-70
2023/06/29 12:22:01;;;;;;;2.10;1.90;;;33.40;93.70;;;;;;5010132;28;20389;-70
2023/06/29 12:24:31;;;;;;;2.85;1.83;;;33.30;93.70;;;;;;5009913;28;20056;-70
2023/06/29 12:27:01;;;;;;;2.58;2.10;;;33.30;94.20;;;;;;5011033;28;20124;-70
2023/06/29 12:29:28;;;;;;;2.13;1.92;;;33.10;93.60;;;;;;5003883;28;20046;-70
2023/06/29 12:31:59;;;;;;;6.15;2.35;;;33.30;94.40;;;;;;5001351;28;20116;-70
2023/06/29 12:34:31;;;;;;;8.02;2.40;;;33.50;94.20;;;;;;5004830;28;20038;-70
2023/06/29 12:37:00;;;;;;;2.53;2.28;;;33.70;94.80;;;;;;5016746;28;20040;-70
2023/06/29 12:39:28;;;;;;;2.75;1.90;;;33.70;92.90;;;;;;5018237;28;20132;-70
2023/06/29 12:41:57;;;;;;;3.08;2.10;;;33.80;92.60;;;;;;4997860;28;20149;-70
2023/06/29 12:44:26;;;;;;;2.97;2.20;;;33.90;93.90;;;;;;5015787;28;20095;-70
2023/06/29 12:46:56;;;;;;;3.35;2.50;;;34.00;93.50;;;;;;5016637;28;20415;-70
2023/06/29 12:49:24;;;;;;;5.18;2.13;;;34.30;94.60;;;;;;5014113;28;20068;-69
2023/06/29 12:51:54;;;;;;;3.47;2.08;;;34.30;94.60;;;;;;5022077;28;20053;-69
2023/06/29 12:54:22;;;;;;;2.80;2.28;;;34.20;93.20;;;;;;4990747;28;21495;-69
2023/06/29 12:56:50;;;;;;;3.85;2.00;;;33.90;93.00;;;;;;5025411;28;20080;-69
2023/06/29 12:59:19;;;;;;;7.32;3.03;;;33.90;93.00;;;;;;5009673;28;20063;-69
2023/06/29 13:01:47;;;;;;;2.85;2.30;;;33.80;93.90;;;;;;5021830;28;20069;-68
2023/06/29 13:04:15;;;;;;;6.65;2.60;;;34.20;95.00;;;;;;5000255;28;20059;-69
2023/06/29 13:06:43;;;;;;;4.90;2.63;;;34.60;94.10;;;;;;5023881;28;20480;-69
2023/06/29 13:09:11;;;;;;;2.83;2.33;;;34.90;93.40;;;;;;5021357;28;20050;-69
2023/06/29 13:11:44;;;;;;;2.90;2.42;;;35.00;93.80;;;;;;5019678;28;20107;-69
2023/06/29 13:14:12;;;;;;;3.90;2.65;;;35.30;93.10;;;;;;5024646;28;20044;-69
2023/06/29 13:16:41;;;;;;;4.68;2.85;;;35.50;90.50;;;;;;5024304;28;20037;-69
2023/06/29 13:19:09;;;;;;;3.65;2.92;;;35.70;92.10;;;;;;4991313;28;20049;-70
2023/06/29 13:21:37;;;;;;;4.35;2.97;;;35.80;91.20;;;;;;5025083;28;20406;-69
2023/06/29 13:24:05;;;;;;;4.57;3.17;;;35.80;89.00;;;;;;5017871;28;20102;-69
2023/06/29 13:26:33;;;;;;;3.63;2.20;;;35.90;91.30;;;;;;5024722;28;20045;-69
2023/06/29 13:29:01;;;;;;;3.08;2.60;;;36.00;90.10;;;;;;5007262;28;20509;-69
2023/06/29 13:31:30;;;;;;;3.60;2.75;;;36.20;90.20;;;;;;5020639;28;20113;-69
2023/06/29 13:33:59;;;;;;;3.33;2.60;;;36.20;89.20;;;;;;5006804;28;20109;-69
2023/06/29 13:36:27;;;;;;;4.03;2.38;;;36.40;89.50;;;;;;5024736;28;20068;-70
2023/06/29 13:38:55;;;;;;;3.35;2.58;;;36.40;89.00;;;;;;5024599;28;20060;-69
2023/06/29 13:41:35;;;;;;;7.47;3.50;;;36.70;88.60;;;;;;5024548;28;20131;-69
2023/06/29 13:44:03;;;;;;;3.42;2.45;;;36.60;88.20;;;;;;5002749;28;20041;-69
2023/06/29 13:46:32;;;;;;;3.08;2.78;;;36.50;88.40;;;;;;5022060;28;20041;-70
2023/06/29 13:49:02;;;;;;;3.60;3.03;;;36.60;87.90;;;;;;5001674;28;20045;-69
2023/06/29 13:51:31;;;;;;;3.83;2.95;;;36.60;86.80;;;;;;5024030;28;20101;-70
2023/06/29 13:54:01;;;;;;;4.10;2.92;;;36.60;86.80;;;;;;5017770;28;20038;-69
2023/06/29 13:56:31;;;;;;;3.05;2.70;;;36.60;87.90;;;;;;5005289;28;20099;-69
2023/06/29 13:59:03;;;;;;;3.33;2.90;;;36.70;86.90;;;;;;5021827;28;20053;-69
2023/06/29 14:01:31;;;;;;;3.10;2.78;;;37.00;88.40;;;;;;5010647;28;20495;-69
2023/06/29 14:04:00;;;;;;;3.90;3.10;;;37.00;87.60;;;;;;5005063;28;20127;-69
2023/06/29 14:06:29;;;;;;;5.18;2.80;;;37.20;87.30;;;;;;5024135;28;20052;-69
2023/06/29 14:08:57;;;;;;;3.70;2.97;;;37.20;85.90;;;;;;5005925;28;20517;-69
2023/06/29 14:11:27;;;;;;;3.10;2.80;;;37.20;86.30;;;;;;5022849;28;20069;-70
2023/06/29 14:13:56;;;;;;;3.67;3.08;;;37.40;85.70;;;;;;5003123;28;20053;-70
2023/06/29 14:16:25;;;;;;;3.40;2.92;;;37.10;85.50;;;;;;5006651;28;20454;-70
2023/06/29 14:18:53;;;;;;;4.20;3.00;;;37.20;86.20;;;;;;5023522;28;20103;-70
2023/06/29 14:21:23;;;;;;;4.47;2.83;;;37.60;86.90;;;;;;5003734;28;20041;-70
2023/06/29 14:23:51;;;;;;;4.03;2.88;;;37.60;86.10;;;;;;5020307;28;20055;-70
2023/06/29 14:26:19;;;;;;;3.65;2.55;;;37.90;85.60;;;;;;5024005;28;20415;-70
2023/06/29 14:28:47;;;;;;;3.53;2.95;;;38.30;86.20;;;;;;5005678;28;20056;-70
2023/06/29 14:31:16;;;;;;;3.03;2.72;;;38.30;85.10;;;;;;5023898;28;20040;-70
2023/06/29 14:33:45;;;;;;;3.95;2.92;;;38.20;85.80;;;;;;5024105;28;20051;-70
2023/06/29 14:36:13;;;;;;;3.83;2.95;;;38.30;84.10;;;;;;5023930;28;20069;-70
2023/06/29 14:38:42;;;;;;;3.13;2.72;;;38.40;83.90;;;;;;5014239;28;20045;-70
2023/06/29 14:41:10;;;;;;;2.97;2.67;;;38.70;83.50;;;;;;5006044;28;20065;-70
2023/06/29 14:43:38;;;;;;;4.15;2.88;;;39.00;83.80;;;;;;5017971;28;20053;-70
2023/06/29 14:46:06;;;;;;;3.70;3.30;;;39.20;84.30;;;;;;5005805;28;20072;-70
2023/06/29 14:48:34;;;;;;;3.78;3.17;;;39.70;83.70;;;;;;4996201;28;20108;-70
2023/06/29 14:51:02;;;;;;;4.38;3.47;;;39.90;83.60;;;;;;5003992;28;20068;-70
2023/06/29 14:53:30;;;;;;;3.55;3.00;;;39.70;82.20;;;;;;5021404;28;20079;-70
2023/06/29 14:56:07;;;;;;;4.10;3.05;;;39.50;82.60;;;;;;5015566;28;20038;-70
2023/06/29 14:58:35;;;;;;;5.57;3.55;;;40.00;82.20;;;;;;5023853;28;20103;-70
2023/06/29 15:01:04;;;;;;;3.78;3.03;;;40.10;81.40;;;;;;5006064;28;20107;-70